Time;durP1;ratioP1;P1;durP2;ratioP2;P2;SDS_P1;SDS_P2;PMS_P1;PMS_P2;Temp;Humidity;BMP_temperature;BMP_pressure;BME280_temperature;BME280_humidity;BME280_pressure;Samples;Min_cycle;Max_cycle;Signal;HPM_P1;HPM_P2
2022/06/17 00:02:11;;;;;;;1.67;0.50;;;20.20;69.20;;;;;;5026052;28;20042;-90
2022/06/17 00:07:44;;;;;;;2.63;0.50;;;20.20;69.20;;;;;;4956186;28;20031;-91
2022/06/17 00:11:05;;;;;;;1.20;0.43;;;20.20;69.80;;;;;;5003217;28;20018;-90
2022/06/17 00:16:52;;;;;;;0.85;0.40;;;20.20;69.90;;;;;;4955327;29;20070;-91
2022/06/17 00:19:28;;;;;;;1.75;0.50;;;20.10;69.70;;;;;;4940228;29;20027;-91
2022/06/17 00:22:20;;;;;;;0.80;0.43;;;20.10;69.80;;;;;;4980821;28;20038;-90
2022/06/17 00:25:01;;;;;;;0.90;0.40;;;20.00;69.80;;;;;;4941010;29;20040;-90
2022/06/17 00:27:33;;;;;;;1.90;0.50;;;20.00;70.40;;;;;;4995470;28;20506;-91
2022/06/17 00:30:55;;;;;;;1.52;0.65;;;20.00;70.40;;;;;;4988900;28;20073;-90
2022/06/17 00:36:52;;;;;;;1.38;0.63;;;19.90;70.80;;;;;;5010743;28;20041;-91
2022/06/17 00:39:27;;;;;;;1.25;0.57;;;19.70;70.90;;;;;;5027407;28;20390;-91
2022/06/17 00:42:18;;;;;;;0.98;0.60;;;19.60;71.40;;;;;;5009108;28;20048;-90
2022/06/17 00:45:30;;;;;;;1.38;0.40;;;19.60;71.40;;;;;;4998048;28;20069;-90
2022/06/17 00:48:46;;;;;;;2.13;0.60;;;19.60;71.70;;;;;;5013497;28;20030;-91
2022/06/17 00:51:48;;;;;;;;;;;;;;;;;;;;;
2022/06/17 00:54:39;;;;;;;;;;;19.50;72.00;;;;;;5013273;28;20038;-90
2022/06/17 00:57:32;;;;;;;1.33;0.45;;;19.30;72.30;;;;;;5000321;28;19985;-89
2022/06/17 01:00:16;;;;;;;1.38;0.60;;;19.30;72.50;;;;;;4990740;28;20062;-91
2022/06/17 01:03:08;;;;;;;1.38;0.52;;;19.10;72.80;;;;;;4991929;28;20482;-91
2022/06/17 01:06:07;;;;;;;1.42;0.55;;;19.20;73.00;;;;;;4994916;28;20036;-90
2022/06/17 01:11:47;;;;;;;0.82;0.47;;;19.00;73.50;;;;;;5008939;28;20103;-90
2022/06/17 01:14:52;;;;;;;0.70;0.30;;;18.90;73.70;;;;;;5002716;23;20038;-90
2022/06/17 01:17:29;;;;;;;2.10;0.68;;;18.80;74.10;;;;;;4932342;29;20031;-91
2022/06/17 01:20:42;;;;;;;;;;;;;;;;;;;;;
2022/06/17 01:23:23;;;;;;;1.02;0.50;;;18.90;74.50;;;;;;4976401;28;20049;-90
2022/06/17 01:25:49;;;;;;;1.05;0.40;;;18.80;74.70;;;;;;4964245;28;20117;-90
2022/06/17 01:28:20;;;;;;;0.70;0.40;;;18.80;74.70;;;;;;4968911;28;20434;-90
2022/06/17 01:31:51;;;;;;;1.85;0.60;;;18.80;75.00;;;;;;4970466;28;20062;-89
2022/06/17 01:34:34;;;;;;;0.85;0.50;;;18.70;75.00;;;;;;4958519;28;20538;-90
2022/06/17 01:37:04;;;;;;;1.10;0.40;;;18.80;75.10;;;;;;4965812;28;20042;-90
2022/06/17 01:42:40;;;;;;;1.33;0.50;;;18.90;75.70;;;;;;4958020;28;20032;-90
2022/06/17 01:45:16;;;;;;;0.85;0.40;;;18.80;76.10;;;;;;4961271;28;20023;-91
2022/06/17 01:47:47;;;;;;;1.23;0.50;;;18.80;76.50;;;;;;4965415;28;20483;-89
2022/06/17 01:50:18;;;;;;;1.52;0.60;;;18.80;76.00;;;;;;4972466;28;20031;-91
2022/06/17 01:53:27;;;;;;;2.33;0.75;;;18.90;75.90;;;;;;4971644;28;20452;-89
2022/06/17 01:56:13;;;;;;;1.63;0.60;;;18.80;75.80;;;;;;4959226;28;20031;-91
2022/06/17 01:58:58;;;;;;;1.33;0.60;;;18.80;75.90;;;;;;4985733;28;20027;-91
2022/06/17 02:01:31;;;;;;;2.65;0.50;;;18.80;76.00;;;;;;4969226;28;20023;-90
2022/06/17 02:04:14;;;;;;;1.00;0.50;;;18.70;76.10;;;;;;4962795;28;20027;-90
2022/06/17 02:06:58;;;;;;;0.75;0.40;;;18.70;76.20;;;;;;4956927;28;20134;-90
2022/06/17 02:09:35;;;;;;;1.75;0.80;;;18.60;76.30;;;;;;4962979;28;20033;-90
2022/06/17 02:12:10;;;;;;;2.97;0.52;;;18.50;76.70;;;;;;4970741;28;20055;-90
2022/06/17 02:14:46;;;;;;;2.83;0.52;;;18.40;77.10;;;;;;4960524;28;20059;-90
2022/06/17 02:18:00;;;;;;;;;;;;;;;;;;;;;
2022/06/17 02:20:32;;;;;;;0.90;0.40;;;18.30;77.80;;;;;;4955561;28;20031;-90
2022/06/17 02:23:01;;;;;;;1.58;0.40;;;18.30;77.90;;;;;;4971305;28;20481;-90
2022/06/17 02:25:40;;;;;;;1.02;0.50;;;18.40;78.20;;;;;;4964430;28;20023;-90
2022/06/17 02:28:13;;;;;;;0.90;0.43;;;18.30;78.80;;;;;;4960913;28;20027;-90
2022/06/17 02:30:48;;;;;;;2.50;0.57;;;18.30;79.10;;;;;;4967401;28;20081;-90
2022/06/17 02:33:24;;;;;;;1.50;0.50;;;18.30;79.30;;;;;;4971049;28;20463;-90
2022/06/17 02:36:38;;;;;;;1.85;0.63;;;18.40;79.50;;;;;;4962967;28;20031;-89
2022/06/17 02:39:06;;;;;;;1.65;0.60;;;18.30;79.60;;;;;;4960587;28;20049;-90
2022/06/17 02:41:38;;;;;;;0.75;0.40;;;18.30;78.80;;;;;;4970046;28;20430;-90
2022/06/17 02:44:05;;;;;;;;;;;18.10;79.50;;;;;;4956637;28;20082;-90
2022/06/17 02:47:06;;;;;;;1.25;0.40;;;18.20;79.60;;;;;;4969758;28;19910;-89
2022/06/17 02:49:46;;;;;;;1.17;0.53;;;18.10;79.50;;;;;;4970050;28;20038;-88
2022/06/17 02:52:18;;;;;;;1.58;0.60;;;17.90;80.00;;;;;;4965629;28;20513;-90
2022/06/17 02:55:22;;;;;;;2.42;0.70;;;17.70;80.00;;;;;;4969042;28;20117;-89
2022/06/17 02:58:48;;;;;;;1.92;0.52;;;17.70;81.10;;;;;;4968032;28;20050;-90
2022/06/17 03:01:25;;;;;;;1.73;0.57;;;17.70;81.50;;;;;;4972073;28;20027;-90
2022/06/17 03:04:14;;;;;;;0.77;0.45;;;17.70;82.30;;;;;;4971709;28;20034;-90
2022/06/17 03:06:56;;;;;;;1.25;0.50;;;17.70;82.10;;;;;;4957661;28;20050;-90
2022/06/17 03:09:41;;;;;;;0.95;0.50;;;17.70;82.20;;;;;;4972331;28;20042;-90
2022/06/17 03:12:27;;;;;;;1.40;0.60;;;17.70;82.30;;;;;;4965832;28;20019;-89
2022/06/17 03:15:26;;;;;;;1.50;0.68;;;17.70;81.80;;;;;;4967872;28;20027;-90
2022/06/17 03:17:52;;;;;;;1.42;0.40;;;17.70;81.80;;;;;;4968313;28;20031;-90
2022/06/17 03:20:31;;;;;;;0.80;0.50;;;17.70;81.60;;;;;;4968864;28;20379;-89
2022/06/17 03:23:11;;;;;;;1.70;0.68;;;17.70;81.30;;;;;;4958166;28;20027;-90
2022/06/17 03:28:13;;;;;;;1.65;0.50;;;17.80;81.10;;;;;;4993312;28;20061;-86
2022/06/17 03:31:03;;;;;;;1.90;0.68;;;17.80;80.90;;;;;;4976970;28;20030;-87
2022/06/17 03:33:34;;;;;;;0.90;0.47;;;17.80;80.60;;;;;;4988269;28;20306;-85
2022/06/17 03:36:10;;;;;;;0.85;0.38;;;17.80;80.90;;;;;;4965437;28;20022;-86
2022/06/17 03:38:51;;;;;;;1.02;0.60;;;17.70;81.20;;;;;;4957456;28;20023;-85
2022/06/17 03:41:35;;;;;;;0.85;0.40;;;17.70;81.40;;;;;;4957866;28;20019;-85
2022/06/17 03:44:10;;;;;;;1.33;0.40;;;17.70;81.50;;;;;;4947214;28;20078;-85
2022/06/17 03:46:53;;;;;;;3.38;0.70;;;17.70;81.50;;;;;;4967978;28;20505;-86
2022/06/17 03:49:41;;;;;;;1.10;0.52;;;17.70;81.80;;;;;;4944044;28;20031;-86
2022/06/17 03:52:21;;;;;;;0.82;0.40;;;17.60;81.80;;;;;;4957060;28;20046;-85
2022/06/17 03:54:46;;;;;;;2.50;0.40;;;17.60;82.10;;;;;;4954833;28;20047;-86
2022/06/17 03:57:15;;;;;;;2.33;0.65;;;17.60;82.00;;;;;;4954297;28;20486;-86
2022/06/17 03:59:45;;;;;;;1.27;0.52;;;17.50;82.10;;;;;;4969879;28;20379;-85
2022/06/17 04:02:13;;;;;;;1.25;0.38;;;17.60;82.40;;;;;;4956176;28;20026;-85
2022/06/17 04:04:43;;;;;;;1.85;0.40;;;17.60;82.30;;;;;;4956916;28;20027;-85
2022/06/17 04:07:11;;;;;;;0.90;0.50;;;17.60;82.40;;;;;;4956843;28;20029;-85
2022/06/17 04:09:39;;;;;;;1.02;0.50;;;17.60;82.40;;;;;;4952190;28;20053;-85
2022/06/17 04:12:20;;;;;;;0.70;0.40;;;17.50;82.40;;;;;;4957291;28;20023;-86
2022/06/17 04:14:58;;;;;;;0.85;0.40;;;17.60;82.40;;;;;;4971978;28;20022;-86
2022/06/17 04:17:48;;;;;;;1.33;0.57;;;17.60;82.50;;;;;;4971888;28;20027;-86
2022/06/17 04:20:38;;;;;;;2.17;0.50;;;17.60;82.60;;;;;;4951212;28;20488;-85
2022/06/17 04:23:13;;;;;;;1.35;0.57;;;17.60;82.80;;;;;;4957268;28;20023;-85
2022/06/17 04:25:46;;;;;;;2.35;0.63;;;17.60;82.70;;;;;;4952131;28;20049;-85
2022/06/17 04:28:16;;;;;;;0.82;0.32;;;17.70;82.60;;;;;;4955336;28;20170;-86
2022/06/17 04:30:56;;;;;;;1.70;0.50;;;17.60;82.80;;;;;;4974007;28;20019;-86
2022/06/17 04:33:30;;;;;;;0.82;0.50;;;17.50;83.20;;;;;;4956803;28;20022;-86
2022/06/17 04:36:02;;;;;;;1.88;0.65;;;17.60;83.40;;;;;;4968135;28;20023;-86
2022/06/17 04:38:31;;;;;;;1.17;0.40;;;17.50;83.30;;;;;;4954788;28;20565;-86
2022/06/17 04:41:02;;;;;;;3.33;0.80;;;17.50;83.40;;;;;;4970591;28;20535;-86
2022/06/17 04:43:35;;;;;;;1.25;0.70;;;17.50;83.50;;;;;;4957489;28;20034;-86
2022/06/17 04:46:09;;;;;;;0.77;0.35;;;17.70;83.50;;;;;;4958736;28;20027;-86
2022/06/17 04:48:35;;;;;;;1.17;0.40;;;17.80;83.10;;;;;;4960430;28;20027;-87
2022/06/17 04:51:03;;;;;;;2.25;0.70;;;17.80;82.90;;;;;;4979328;28;20146;-85
2022/06/17 04:53:31;;;;;;;1.65;0.50;;;17.80;82.90;;;;;;4974397;28;20031;-85
2022/06/17 04:55:57;;;;;;;1.35;0.50;;;17.90;82.80;;;;;;4973704;28;20097;-85
2022/06/17 04:58:25;;;;;;;1.60;0.50;;;17.90;82.50;;;;;;4954083;28;20021;-85
2022/06/17 05:00:54;;;;;;;1.35;0.40;;;18.00;82.40;;;;;;4954464;28;20035;-85
2022/06/17 05:03:27;;;;;;;1.65;0.73;;;18.00;82.30;;;;;;4956172;28;20066;-85
2022/06/17 05:05:53;;;;;;;1.52;0.50;;;18.10;82.10;;;;;;4972576;28;20031;-86
2022/06/17 05:08:22;;;;;;;2.03;0.70;;;18.20;82.40;;;;;;4960668;28;20100;-85
2022/06/17 05:10:59;;;;;;;1.02;0.43;;;18.30;83.30;;;;;;4971840;28;20027;-85
2022/06/17 05:13:31;;;;;;;1.50;0.50;;;18.50;83.20;;;;;;4955525;28;20050;-85
2022/06/17 05:15:56;;;;;;;0.90;0.52;;;18.60;83.50;;;;;;4953123;28;20034;-85
2022/06/17 05:18:22;;;;;;;1.30;0.50;;;18.70;81.60;;;;;;4970020;28;20027;-86
2022/06/17 05:20:48;;;;;;;0.93;0.50;;;18.80;83.90;;;;;;4958400;28;20106;-86
2022/06/17 05:23:16;;;;;;;1.88;0.50;;;18.90;83.50;;;;;;4950108;28;20109;-85
2022/06/17 05:25:45;;;;;;;1.20;0.52;;;19.00;83.40;;;;;;4967798;28;20023;-85
2022/06/17 05:28:18;;;;;;;1.17;0.40;;;19.00;84.20;;;;;;4955584;28;20115;-85
2022/06/17 05:30:53;;;;;;;2.25;0.50;;;19.00;82.80;;;;;;4948110;28;20027;-85
2022/06/17 05:33:20;;;;;;;0.65;0.40;;;18.90;82.00;;;;;;4954659;28;20121;-85
2022/06/17 05:35:46;;;;;;;2.25;0.70;;;18.80;82.80;;;;;;4947738;28;20038;-85
2022/06/17 05:38:11;;;;;;;2.33;0.50;;;19.00;82.90;;;;;;4954691;28;20029;-85
2022/06/17 05:40:38;;;;;;;1.23;0.50;;;19.20;82.70;;;;;;4956426;28;20507;-85
2022/06/17 05:43:04;;;;;;;1.20;0.50;;;19.30;82.00;;;;;;4952809;28;20073;-85
2022/06/17 05:45:30;;;;;;;1.55;0.52;;;19.40;80.80;;;;;;4947662;28;20414;-85
2022/06/17 05:47:56;;;;;;;1.35;0.60;;;19.60;81.60;;;;;;4972548;28;20069;-86
2022/06/17 05:50:24;;;;;;;2.47;0.68;;;19.70;80.10;;;;;;4971384;28;20542;-86
2022/06/17 05:52:59;;;;;;;1.40;0.60;;;19.80;79.60;;;;;;4953744;28;20027;-85
2022/06/17 05:55:28;;;;;;;1.33;0.57;;;19.90;78.80;;;;;;4955610;28;20035;-86
2022/06/17 05:57:54;;;;;;;1.02;0.50;;;20.00;79.10;;;;;;4970502;28;20530;-86
2022/06/17 06:00:20;;;;;;;2.83;0.70;;;20.20;79.10;;;;;;4955493;28;20030;-86
2022/06/17 06:02:46;;;;;;;2.15;0.60;;;20.20;78.80;;;;;;4953650;28;20027;-86
2022/06/17 06:05:16;;;;;;;1.10;0.50;;;20.20;78.50;;;;;;4956947;28;20023;-86
2022/06/17 06:07:41;;;;;;;1.23;0.60;;;20.30;78.70;;;;;;4975425;28;20023;-86
2022/06/17 06:10:08;;;;;;;2.05;0.70;;;20.30;77.20;;;;;;4975081;28;20027;-86
2022/06/17 06:15:23;;;;;;;2.30;0.50;;;20.50;77.60;;;;;;4960680;28;20041;-87
2022/06/17 06:17:49;;;;;;;1.35;0.57;;;20.50;77.30;;;;;;4969706;28;20052;-87
2022/06/17 06:20:16;;;;;;;1.23;0.57;;;20.60;77.40;;;;;;4968891;28;20030;-87
2022/06/17 06:22:42;;;;;;;1.27;0.50;;;20.60;77.90;;;;;;4971639;28;20117;-88
2022/06/17 06:25:11;;;;;;;1.17;0.60;;;20.80;77.80;;;;;;4972024;28;20038;-88
2022/06/17 06:27:37;;;;;;;1.10;0.50;;;20.90;77.40;;;;;;4968637;28;20046;-88
2022/06/17 06:30:03;;;;;;;1.25;0.50;;;20.90;77.40;;;;;;4971701;28;20031;-87
2022/06/17 06:32:29;;;;;;;3.95;0.70;;;21.00;76.70;;;;;;4958099;28;20030;-88
2022/06/17 06:34:54;;;;;;;2.20;0.70;;;21.10;76.80;;;;;;4971026;28;20542;-88
2022/06/17 06:37:20;;;;;;;3.03;0.80;;;21.20;76.80;;;;;;4972090;28;20026;-87
2022/06/17 06:39:46;;;;;;;1.42;0.50;;;21.20;76.60;;;;;;4955223;28;20036;-87
2022/06/17 06:42:12;;;;;;;1.40;0.60;;;21.10;77.10;;;;;;4939780;28;20090;-86
2022/06/17 06:44:37;;;;;;;1.50;0.60;;;21.20;77.50;;;;;;4966098;28;20054;-88
2022/06/17 06:47:04;;;;;;;3.13;0.65;;;21.20;78.90;;;;;;4967261;28;20027;-88
2022/06/17 06:49:29;;;;;;;3.17;0.60;;;21.20;78.50;;;;;;4968241;28;20023;-88
2022/06/17 06:51:55;;;;;;;1.83;0.68;;;21.40;79.10;;;;;;4971178;28;20023;-88
2022/06/17 06:54:21;;;;;;;2.33;0.77;;;21.40;80.20;;;;;;4966806;28;20027;-90
2022/06/17 06:56:53;;;;;;;2.00;0.60;;;21.30;78.90;;;;;;4971574;28;20027;-91
2022/06/17 06:59:26;;;;;;;1.55;0.65;;;21.40;78.40;;;;;;4953278;28;20031;-90
2022/06/17 07:01:52;;;;;;;2.00;0.70;;;21.50;78.20;;;;;;4969259;28;20031;-90
2022/06/17 07:04:18;;;;;;;1.67;0.75;;;21.60;79.40;;;;;;4970396;28;20023;-90
2022/06/17 07:06:44;;;;;;;1.25;0.60;;;21.70;78.40;;;;;;4967622;28;20054;-90
2022/06/17 07:09:12;;;;;;;1.98;0.65;;;21.60;79.30;;;;;;4953164;28;20475;-90
2022/06/17 07:11:44;;;;;;;1.70;0.77;;;21.70;80.50;;;;;;4951912;28;20035;-91
2022/06/17 07:14:12;;;;;;;2.53;0.55;;;21.70;80.40;;;;;;4956403;28;20518;-90
2022/06/17 07:16:38;;;;;;;1.65;0.70;;;21.60;79.90;;;;;;4955766;28;20031;-91
2022/06/17 07:19:07;;;;;;;3.28;0.77;;;21.60;78.70;;;;;;4954683;28;20030;-90
2022/06/17 07:21:39;;;;;;;1.83;0.68;;;21.70;78.90;;;;;;4971303;28;20226;-91
2022/06/17 07:24:07;;;;;;;1.55;0.65;;;21.90;79.70;;;;;;4955109;28;20023;-90
2022/06/17 07:26:41;;;;;;;2.05;1.00;;;22.20;79.70;;;;;;4969150;28;20106;-90
2022/06/17 07:29:08;;;;;;;1.75;0.63;;;22.10;79.50;;;;;;4971280;28;20035;-92
2022/06/17 07:32:01;;;;;;;2.40;0.93;;;22.20;79.30;;;;;;4972222;28;20022;-91
2022/06/17 07:34:29;;;;;;;1.80;0.90;;;22.40;78.90;;;;;;4956888;28;20031;-90
2022/06/17 07:39:53;;;;;;;2.25;0.80;;;22.80;79.30;;;;;;4974446;28;20395;-91
2022/06/17 07:42:21;;;;;;;2.10;1.00;;;23.10;77.50;;;;;;4974006;28;20406;-90
2022/06/17 07:44:47;;;;;;;4.13;1.10;;;23.20;76.90;;;;;;4955641;28;20428;-89
2022/06/17 07:47:15;;;;;;;3.42;0.82;;;23.00;76.60;;;;;;4973436;28;20053;-89
2022/06/17 07:49:41;;;;;;;1.75;0.80;;;22.90;77.30;;;;;;4956566;28;20030;-89
2022/06/17 07:52:08;;;;;;;2.58;0.90;;;23.00;77.50;;;;;;4953809;28;20187;-90
2022/06/17 07:54:33;;;;;;;1.80;0.70;;;22.70;76.50;;;;;;4974543;28;20102;-87
2022/06/17 07:56:59;;;;;;;1.83;0.90;;;22.70;78.70;;;;;;4954285;28;20499;-88
2022/06/17 07:59:25;;;;;;;1.50;0.70;;;22.70;77.90;;;;;;4974869;28;20095;-88
2022/06/17 08:01:50;;;;;;;1.88;0.68;;;22.50;76.80;;;;;;4969628;28;20073;-88
2022/06/17 08:04:17;;;;;;;2.40;0.93;;;22.10;77.80;;;;;;4957297;28;20023;-88
2022/06/17 08:06:49;;;;;;;2.30;0.80;;;22.10;78.80;;;;;;4956947;28;20042;-88
2022/06/17 08:09:16;;;;;;;5.07;1.08;;;22.30;78.20;;;;;;4970992;28;20483;-89
2022/06/17 08:11:41;;;;;;;2.10;0.88;;;22.70;78.50;;;;;;4972077;28;20023;-88
2022/06/17 08:14:07;;;;;;;2.00;0.90;;;22.90;77.40;;;;;;4974290;28;20045;-89
2022/06/17 08:16:35;;;;;;;2.22;0.90;;;22.90;75.90;;;;;;4975322;28;20034;-88
2022/06/17 08:19:04;;;;;;;1.60;0.70;;;23.10;76.00;;;;;;4967229;28;20027;-89
2022/06/17 08:21:30;;;;;;;4.90;0.82;;;23.40;75.90;;;;;;4972906;28;20475;-89
2022/06/17 08:23:56;;;;;;;1.48;0.63;;;23.40;75.30;;;;;;4969955;28;20019;-89
2022/06/17 08:26:21;;;;;;;1.88;0.63;;;23.30;75.70;;;;;;4967820;28;20023;-89
2022/06/17 08:28:47;;;;;;;2.38;0.88;;;23.40;76.00;;;;;;4971285;28;20030;-89
2022/06/17 08:31:13;;;;;;;1.88;0.70;;;23.50;75.10;;;;;;4954713;28;20050;-88
2022/06/17 08:33:38;;;;;;;3.25;0.70;;;23.50;74.70;;;;;;4950691;28;20443;-87
2022/06/17 08:36:10;;;;;;;1.42;0.80;;;23.60;75.60;;;;;;4953719;28;20349;-88
2022/06/17 08:38:41;;;;;;;1.40;0.70;;;23.90;75.70;;;;;;4957867;28;20019;-89
2022/06/17 08:41:32;;;;;;;2.65;0.80;;;24.10;73.80;;;;;;4965331;28;20022;-89
2022/06/17 08:44:16;;;;;;;2.10;0.90;;;24.40;73.50;;;;;;4956004;28;20033;-88
2022/06/17 08:46:56;;;;;;;1.23;0.40;;;24.40;70.70;;;;;;4954257;28;20395;-88
2022/06/17 08:49:47;;;;;;;1.50;0.70;;;24.50;72.90;;;;;;4967206;28;20023;-88
2022/06/17 08:52:19;;;;;;;1.80;0.75;;;24.50;74.00;;;;;;4977046;28;20046;-89
2022/06/17 08:54:51;;;;;;;;;;;24.70;72.20;;;;;;4978662;28;20027;-88
2022/06/17 08:57:46;;;;;;;2.42;0.80;;;24.70;72.20;;;;;;4967798;28;19938;-87
2022/06/17 09:00:25;;;;;;;2.35;0.60;;;24.60;72.10;;;;;;4950993;28;20031;-88
2022/06/17 09:03:18;;;;;;;2.20;0.88;;;24.90;71.00;;;;;;4969515;28;20117;-89
2022/06/17 09:05:51;;;;;;;1.92;0.80;;;25.30;70.90;;;;;;4970448;28;20391;-89
2022/06/17 09:08:45;;;;;;;2.25;0.77;;;25.10;69.50;;;;;;4972709;28;20029;-88
2022/06/17 09:11:24;;;;;;;1.58;0.60;;;25.20;70.70;;;;;;4970748;28;20031;-88
2022/06/17 09:14:02;;;;;;;1.42;0.60;;;25.40;71.30;;;;;;4971806;28;20093;-88
2022/06/17 09:16:46;;;;;;;1.58;0.80;;;25.10;70.10;;;;;;4971556;28;20026;-88
2022/06/17 09:19:15;;;;;;;2.13;0.95;;;25.40;70.30;;;;;;4963695;28;20031;-88
2022/06/17 09:21:52;;;;;;;1.70;0.60;;;25.50;69.70;;;;;;4962337;28;20506;-88
2022/06/17 09:24:27;;;;;;;1.13;0.60;;;25.60;69.10;;;;;;4950802;28;20158;-88
2022/06/17 09:27:19;;;;;;;1.50;0.70;;;25.50;69.10;;;;;;4950434;28;20034;-88
2022/06/17 09:29:56;;;;;;;2.00;0.95;;;25.60;68.20;;;;;;4963870;28;20067;-89
2022/06/17 09:32:37;;;;;;;1.90;0.77;;;25.60;69.50;;;;;;4981391;28;20085;-88
2022/06/17 09:35:27;;;;;;;2.28;0.60;;;25.70;69.70;;;;;;4968689;28;20031;-88
2022/06/17 09:38:08;;;;;;;1.65;0.65;;;25.90;68.50;;;;;;4972653;28;20022;-88
2022/06/17 09:40:41;;;;;;;2.20;0.65;;;25.70;67.60;;;;;;4972246;28;20023;-88
2022/06/17 09:43:31;;;;;;;1.02;0.63;;;26.20;69.60;;;;;;4954693;28;20049;-89
2022/06/17 09:46:20;;;;;;;1.60;0.65;;;26.00;67.10;;;;;;4964679;28;20073;-89
2022/06/17 09:49:10;;;;;;;1.35;0.50;;;26.30;67.40;;;;;;4971243;28;20023;-87
2022/06/17 09:51:49;;;;;;;1.35;0.47;;;26.50;66.40;;;;;;4969320;28;20030;-89
2022/06/17 09:54:34;;;;;;;1.70;0.60;;;26.80;64.50;;;;;;4971783;28;20041;-89
2022/06/17 09:57:18;;;;;;;1.55;0.55;;;27.00;64.60;;;;;;4964296;28;20657;-88
2022/06/17 09:59:55;;;;;;;1.55;0.57;;;27.10;65.40;;;;;;4971299;28;20034;-88
2022/06/17 10:02:41;;;;;;;0.95;0.50;;;27.00;64.50;;;;;;4955994;28;20029;-88
2022/06/17 10:05:34;;;;;;;2.28;0.60;;;27.20;64.50;;;;;;4949697;28;20026;-88
2022/06/17 10:08:09;;;;;;;1.38;0.50;;;27.30;63.50;;;;;;4970091;28;20027;-89
2022/06/17 10:11:00;;;;;;;2.08;0.80;;;27.50;64.40;;;;;;4961986;28;20031;-88
2022/06/17 10:13:52;;;;;;;1.80;0.47;;;27.70;63.50;;;;;;4955054;28;20035;-88
2022/06/17 10:19:36;;;;;;;1.63;0.60;;;27.80;63.10;;;;;;4971030;28;20154;-89
2022/06/17 10:22:29;;;;;;;0.70;0.38;;;27.80;61.00;;;;;;4957659;28;20023;-89
2022/06/17 10:25:12;;;;;;;1.70;0.52;;;27.80;59.20;;;;;;4982965;28;20031;-87
2022/06/17 10:27:56;;;;;;;1.13;0.60;;;28.30;58.70;;;;;;4969627;28;20038;-90
2022/06/17 10:30:42;;;;;;;0.90;0.38;;;28.50;60.30;;;;;;4972508;28;20503;-90
2022/06/17 10:33:12;;;;;;;1.38;0.60;;;29.20;59.90;;;;;;4989786;28;20026;-86
2022/06/17 10:35:39;;;;;;;;;;;29.10;59.50;;;;;;4975269;28;20017;-87
2022/06/17 10:38:08;;;;;;;1.20;0.50;;;29.30;59.20;;;;;;4995023;28;19902;-88
2022/06/17 10:40:38;;;;;;;0.93;0.40;;;29.50;59.70;;;;;;4978984;28;20049;-88
2022/06/17 10:43:12;;;;;;;1.20;0.50;;;29.80;56.80;;;;;;4974602;28;20027;-87
2022/06/17 10:45:38;;;;;;;0.70;0.50;;;29.80;56.90;;;;;;4988070;28;20027;-88
2022/06/17 10:48:18;;;;;;;1.50;0.35;;;29.90;56.90;;;;;;4976930;28;20011;-86
2022/06/17 10:50:44;;;;;;;2.13;0.70;;;29.90;58.30;;;;;;4993504;28;20083;-88
2022/06/17 10:53:51;;;;;;;2.05;0.52;;;29.60;56.50;;;;;;4975767;28;20282;-87
2022/06/17 10:56:26;;;;;;;1.23;0.52;;;29.90;55.90;;;;;;4945492;28;20019;-89
2022/06/17 10:58:57;;;;;;;1.35;0.57;;;30.30;56.30;;;;;;4979086;28;20107;-88
2022/06/17 11:02:07;;;;;;;1.48;0.60;;;30.00;56.10;;;;;;4996953;28;20031;-90
2022/06/17 11:05:01;;;;;;;1.50;0.45;;;30.40;56.50;;;;;;4955283;28;20411;-90
2022/06/17 11:15:13;;;;;;;;;;;;;;;;;;;;;
2022/06/17 11:17:53;;;;;;;0.70;0.40;;;30.60;53.00;;;;;;4888927;29;20041;-88
2022/06/17 11:23:24;;;;;;;1.50;0.40;;;30.60;54.00;;;;;;4974642;28;20493;-89
2022/06/17 11:26:14;;;;;;;1.10;0.40;;;31.00;56.00;;;;;;4957136;28;20062;-90
2022/06/17 11:28:44;;;;;;;1.63;0.50;;;31.30;53.70;;;;;;4955318;28;20030;-89
2022/06/17 11:31:25;;;;;;;0.65;0.25;;;31.40;53.80;;;;;;4958528;28;20427;-90
2022/06/17 11:33:59;;;;;;;0.70;0.30;;;31.80;53.20;;;;;;4973292;28;20042;-90
2022/06/17 11:36:29;;;;;;;0.60;0.38;;;32.10;53.40;;;;;;4957336;28;20031;-90
2022/06/17 11:39:00;;;;;;;1.15;0.30;;;31.90;51.90;;;;;;4957635;28;20030;-89
2022/06/17 11:41:32;;;;;;;0.65;0.30;;;32.20;52.30;;;;;;4957463;28;20023;-87
2022/06/17 11:44:11;;;;;;;0.73;0.30;;;32.20;51.70;;;;;;4968579;28;20037;-87
2022/06/17 11:46:48;;;;;;;1.00;0.30;;;32.30;52.30;;;;;;4969405;28;20042;-85
2022/06/17 11:49:17;;;;;;;0.63;0.35;;;32.30;51.30;;;;;;4971480;28;20054;-88
2022/06/17 11:52:08;;;;;;;0.70;0.30;;;32.40;51.40;;;;;;4966715;28;20026;-88
2022/06/17 11:54:59;;;;;;;2.25;0.40;;;32.30;50.70;;;;;;4955104;28;20046;-88
2022/06/17 11:57:37;;;;;;;1.27;0.60;;;32.40;50.60;;;;;;4950621;28;20042;-89
2022/06/17 12:00:18;;;;;;;0.70;0.40;;;32.40;52.00;;;;;;4956030;28;20026;-88
2022/06/17 12:02:58;;;;;;;0.82;0.38;;;32.90;51.20;;;;;;4971968;28;20057;-89
2022/06/17 12:05:35;;;;;;;0.70;0.40;;;33.00;50.50;;;;;;4972679;28;20018;-88
2022/06/17 12:08:02;;;;;;;1.77;0.40;;;32.60;52.60;;;;;;4952548;28;20104;-86
2022/06/17 12:11:00;;;;;;;1.08;0.43;;;32.80;50.90;;;;;;4974439;28;20550;-88
2022/06/17 12:13:37;;;;;;;1.23;0.30;;;33.00;50.30;;;;;;4944417;28;20031;-88
2022/06/17 12:16:35;;;;;;;1.85;0.50;;;33.20;51.50;;;;;;4970817;28;20094;-89
2022/06/17 12:19:21;;;;;;;1.55;0.40;;;33.30;51.40;;;;;;4958578;28;20087;-89
2022/06/17 12:22:00;;;;;;;1.48;0.43;;;33.60;51.40;;;;;;4957496;28;20066;-89
2022/06/17 12:25:01;;;;;;;2.08;0.47;;;33.40;50.00;;;;;;4967048;28;20023;-88
2022/06/17 12:27:49;;;;;;;1.15;0.40;;;33.70;49.10;;;;;;4926340;28;20038;-89
2022/06/17 12:30:28;;;;;;;0.55;0.28;;;33.70;48.40;;;;;;4955520;28;20023;-89
2022/06/17 12:33:37;;;;;;;4.75;0.38;;;34.00;48.40;;;;;;4970634;28;20031;-90
2022/06/17 12:36:48;;;;;;;0.93;0.47;;;33.60;48.50;;;;;;4945835;28;20077;-90
2022/06/17 12:39:52;;;;;;;0.70;0.30;;;33.70;47.10;;;;;;4971036;28;20023;-90
2022/06/17 12:42:49;;;;;;;1.05;0.35;;;33.30;46.50;;;;;;4924539;28;20055;-90
2022/06/17 12:45:28;;;;;;;0.93;0.40;;;33.60;47.70;;;;;;4970568;28;20026;-90
2022/06/17 12:47:53;;;;;;;0.50;0.30;;;33.30;46.90;;;;;;4953919;28;20206;-89
2022/06/17 12:53:26;;;;;;;0.95;0.38;;;33.70;46.60;;;;;;4973771;28;20089;-89
2022/06/17 12:56:17;;;;;;;0.75;0.20;;;34.00;46.30;;;;;;4969322;28;20019;-89
2022/06/17 12:59:06;;;;;;;1.15;0.40;;;34.60;45.90;;;;;;4971404;28;20038;-91
2022/06/17 13:01:51;;;;;;;0.50;0.25;;;34.40;45.80;;;;;;4960581;28;20100;-90
2022/06/17 13:04:31;;;;;;;0.75;0.30;;;34.40;45.10;;;;;;4952793;28;20109;-90
2022/06/17 13:07:24;;;;;;;0.20;0.20;;;34.40;46.20;;;;;;4974991;28;20022;-90
2022/06/17 13:10:39;;;;;;;0.40;0.20;;;34.50;45.10;;;;;;4958282;28;20058;-90
2022/06/17 13:13:24;;;;;;;0.50;0.20;;;34.30;44.60;;;;;;4969539;28;20038;-90
2022/06/17 13:15:53;;;;;;;0.75;0.30;;;34.40;44.40;;;;;;4971087;28;20026;-89
2022/06/17 13:18:48;;;;;;;0.40;0.20;;;34.80;45.80;;;;;;4956157;28;20023;-89
2022/06/17 13:21:14;;;;;;;1.13;0.40;;;34.80;45.00;;;;;;4948111;28;20158;-89
2022/06/17 13:24:08;;;;;;;0.68;0.20;;;34.00;43.80;;;;;;4971560;28;20470;-90
2022/06/17 13:26:50;;;;;;;0.52;0.20;;;34.30;45.10;;;;;;4970394;28;20034;-89
2022/06/17 13:29:32;;;;;;;0.38;0.30;;;34.60;44.50;;;;;;4954119;28;20118;-90
2022/06/17 13:32:10;;;;;;;1.05;0.45;;;34.80;46.40;;;;;;4970056;28;20023;-89
2022/06/17 13:34:44;;;;;;;0.40;0.20;;;34.70;45.60;;;;;;4967926;28;20116;-90
2022/06/17 13:37:32;;;;;;;0.95;0.38;;;34.70;45.70;;;;;;4966511;28;20110;-90
2022/06/17 13:40:05;;;;;;;0.77;0.40;;;35.20;46.80;;;;;;4956534;28;20034;-90
2022/06/17 13:42:35;;;;;;;0.40;0.20;;;35.40;45.20;;;;;;4973961;28;20082;-89
2022/06/17 13:45:20;;;;;;;;;;;35.10;45.40;;;;;;4971489;28;20096;-89
2022/06/17 13:48:08;;;;;;;0.55;0.32;;;35.50;45.20;;;;;;4967193;28;19914;-90
2022/06/17 13:50:42;;;;;;;1.20;0.30;;;35.00;46.20;;;;;;4948633;28;20035;-89
2022/06/17 13:53:11;;;;;;;2.60;0.38;;;35.20;45.80;;;;;;4955250;28;20035;-89
2022/06/17 13:55:59;;;;;;;0.98;0.50;;;35.30;45.10;;;;;;4967586;28;20093;-89
2022/06/17 13:58:40;;;;;;;0.65;0.25;;;35.40;44.50;;;;;;4961317;28;20124;-90
2022/06/17 14:01:23;;;;;;;0.50;0.20;;;35.50;45.50;;;;;;4949914;28;20019;-87
2022/06/17 14:03:56;;;;;;;0.60;0.20;;;35.50;43.80;;;;;;4971469;28;20065;-87
2022/06/17 14:06:51;;;;;;;1.95;0.30;;;35.30;45.10;;;;;;4971376;28;20372;-90
2022/06/17 14:09:35;;;;;;;0.57;0.22;;;35.40;44.80;;;;;;4943373;28;20045;-90
2022/06/17 14:12:01;;;;;;;0.15;0.10;;;36.10;46.00;;;;;;4966158;28;20060;-90
2022/06/17 14:14:29;;;;;;;1.02;0.30;;;36.40;45.80;;;;;;4954296;28;20106;-89
2022/06/17 14:17:05;;;;;;;0.60;0.20;;;36.50;45.60;;;;;;4968642;28;21274;-90
2022/06/17 14:19:34;;;;;;;0.50;0.28;;;36.40;44.70;;;;;;4969407;28;20438;-91
2022/06/17 14:22:25;;;;;;;0.50;0.30;;;36.50;44.90;;;;;;4969606;28;20023;-90
2022/06/17 14:24:58;;;;;;;0.80;0.30;;;36.50;44.30;;;;;;4953329;28;20077;-90
2022/06/17 14:27:33;;;;;;;0.22;0.10;;;36.50;45.00;;;;;;4953932;28;20089;-90
2022/06/17 14:30:12;;;;;;;0.70;0.20;;;36.10;44.00;;;;;;4972282;28;20023;-90